sensor_id;sensor_type;location;lat;lon;timestamp;temperature;humidity
2723;DHT22;1369;53.216;10.396;2023-09-18T00:00:40;17.00;99.90
2723;DHT22;1369;53.216;10.396;2023-09-18T00:03:08;17.00;99.90
2723;DHT22;1369;53.216;10.396;2023-09-18T00:05:33;16.90;99.90
2723;DHT22;1369;53.216;10.396;2023-09-18T00:07:59;16.90;99.90
2723;DHT22;1369;53.216;10.396;2023-09-18T00:10:27;16.90;99.90
2723;DHT22;1369;53.216;10.396;2023-09-18T00:12:54;16.80;99.90
2723;DHT22;1369;53.216;10.396;2023-09-18T00:15:20;16.80;99.90
2723;DHT22;1369;53.216;10.396;2023-09-18T00:17:45;16.80;99.90
2723;DHT22;1369;53.216;10.396;2023-09-18T00:20:11;16.80;99.90
2723;DHT22;1369;53.216;10.396;2023-09-18T00:22:37;16.80;99.90
2723;DHT22;1369;53.216;10.396;2023-09-18T00:25:02;16.80;99.90
2723;DHT22;1369;53.216;10.396;2023-09-18T00:27:29;16.80;99.90
2723;DHT22;1369;53.216;10.396;2023-09-18T00:29:54;16.70;99.90
2723;DHT22;1369;53.216;10.396;2023-09-18T00:32:20;16.70;99.90
2723;DHT22;1369;53.216;10.396;2023-09-18T00:34:46;16.70;99.90
2723;DHT22;1369;53.216;10.396;2023-09-18T00:37:11;16.70;99.90
2723;DHT22;1369;53.216;10.396;2023-09-18T00:39:38;16.60;99.90
2723;DHT22;1369;53.216;10.396;2023-09-18T00:42:03;16.60;99.90
2723;DHT22;1369;53.216;10.396;2023-09-18T00:44:29;16.60;99.90
2723;DHT22;1369;53.216;10.396;2023-09-18T00:46:55;16.60;99.90
2723;DHT22;1369;53.216;10.396;2023-09-18T00:49:22;16.60;99.90
2723;DHT22;1369;53.216;10.396;2023-09-18T00:51:49;16.50;99.90
2723;DHT22;1369;53.216;10.396;2023-09-18T00:54:17;16.50;99.90
2723;DHT22;1369;53.216;10.396;2023-09-18T00:56:44;16.50;99.90
2723;DHT22;1369;53.216;10.396;2023-09-18T00:59:10;16.50;99.90
2723;DHT22;1369;53.216;10.396;2023-09-18T01:01:37;16.50;99.90
2723;DHT22;1369;53.216;10.396;2023-09-18T01:04:03;16.40;99.90
2723;DHT22;1369;53.216;10.396;2023-09-18T01:06:29;16.40;99.90
2723;DHT22;1369;53.216;10.396;2023-09-18T01:08:56;16.40;99.90
2723;DHT22;1369;53.216;10.396;2023-09-18T01:11:31;16.40;99.90
2723;DHT22;1369;53.216;10.396;2023-09-18T01:14:07;16.40;99.90
2723;DHT22;1369;53.216;10.396;2023-09-18T01:16:39;16.30;99.90
2723;DHT22;1369;53.216;10.396;2023-09-18T01:19:09;16.30;99.90
2723;DHT22;1369;53.216;10.396;2023-09-18T01:21:35;16.30;99.90
2723;DHT22;1369;53.216;10.396;2023-09-18T01:24:00;16.30;99.90
2723;DHT22;1369;53.216;10.396;2023-09-18T01:26:26;16.20;99.90
2723;DHT22;1369;53.216;10.396;2023-09-18T01:28:51;16.20;99.90
2723;DHT22;1369;53.216;10.396;2023-09-18T01:31:17;16.20;99.90
2723;DHT22;1369;53.216;10.396;2023-09-18T01:33:44;16.20;99.90
2723;DHT22;1369;53.216;10.396;2023-09-18T01:36:11;16.20;99.90
2723;DHT22;1369;53.216;10.396;2023-09-18T01:38:37;16.20;99.90
2723;DHT22;1369;53.216;10.396;2023-09-18T01:41:03;16.20;99.90
2723;DHT22;1369;53.216;10.396;2023-09-18T01:43:28;16.20;99.90
2723;DHT22;1369;53.216;10.396;2023-09-18T01:45:55;16.10;99.90
2723;DHT22;1369;53.216;10.396;2023-09-18T01:48:21;16.10;99.90
2723;DHT22;1369;53.216;10.396;2023-09-18T01:50:46;16.10;99.90
2723;DHT22;1369;53.216;10.396;2023-09-18T01:53:12;16.10;99.90
2723;DHT22;1369;53.216;10.396;2023-09-18T01:55:37;16.00;99.90
2723;DHT22;1369;53.216;10.396;2023-09-18T01:58:03;16.00;99.90
2723;DHT22;1369;53.216;10.396;2023-09-18T02:00:28;16.00;99.90
2723;DHT22;1369;53.216;10.396;2023-09-18T02:02:54;16.00;99.90
2723;DHT22;1369;53.216;10.396;2023-09-18T02:05:19;16.00;99.90
2723;DHT22;1369;53.216;10.396;2023-09-18T02:07:45;16.00;99.90
2723;DHT22;1369;53.216;10.396;2023-09-18T02:10:11;16.00;99.90
2723;DHT22;1369;53.216;10.396;2023-09-18T02:12:38;16.00;99.90
2723;DHT22;1369;53.216;10.396;2023-09-18T02:15:05;16.00;99.90
2723;DHT22;1369;53.216;10.396;2023-09-18T02:17:32;16.00;99.90
2723;DHT22;1369;53.216;10.396;2023-09-18T02:19:57;16.00;99.90
2723;DHT22;1369;53.216;10.396;2023-09-18T02:22:23;16.00;99.90
2723;DHT22;1369;53.216;10.396;2023-09-18T02:24:49;15.90;99.90
2723;DHT22;1369;53.216;10.396;2023-09-18T02:27:15;15.90;99.90
2723;DHT22;1369;53.216;10.396;2023-09-18T02:29:44;15.90;99.90
2723;DHT22;1369;53.216;10.396;2023-09-18T02:32:09;15.80;99.90
2723;DHT22;1369;53.216;10.396;2023-09-18T02:34:35;15.80;99.90
2723;DHT22;1369;53.216;10.396;2023-09-18T02:37:01;15.80;99.90
2723;DHT22;1369;53.216;10.396;2023-09-18T02:39:26;15.80;99.90
2723;DHT22;1369;53.216;10.396;2023-09-18T02:41:52;15.80;99.90
2723;DHT22;1369;53.216;10.396;2023-09-18T02:44:17;15.70;99.90
2723;DHT22;1369;53.216;10.396;2023-09-18T02:46:43;15.70;99.90
2723;DHT22;1369;53.216;10.396;2023-09-18T02:49:08;15.70;99.90
2723;DHT22;1369;53.216;10.396;2023-09-18T02:51:34;15.70;99.90
2723;DHT22;1369;53.216;10.396;2023-09-18T02:53:59;15.60;99.90
2723;DHT22;1369;53.216;10.396;2023-09-18T02:56:25;15.70;99.90
2723;DHT22;1369;53.216;10.396;2023-09-18T02:58:51;15.60;99.90
2723;DHT22;1369;53.216;10.396;2023-09-18T03:01:16;15.60;99.90
2723;DHT22;1369;53.216;10.396;2023-09-18T03:03:42;15.60;99.90
2723;DHT22;1369;53.216;10.396;2023-09-18T03:06:08;15.60;99.90
2723;DHT22;1369;53.216;10.396;2023-09-18T03:08:34;15.60;99.90
2723;DHT22;1369;53.216;10.396;2023-09-18T03:11:00;15.60;99.90
2723;DHT22;1369;53.216;10.396;2023-09-18T03:13:29;15.60;99.90
2723;DHT22;1369;53.216;10.396;2023-09-18T03:15:55;15.60;99.90
2723;DHT22;1369;53.216;10.396;2023-09-18T03:18:21;15.60;99.90
2723;DHT22;1369;53.216;10.396;2023-09-18T03:20:47;15.60;99.90
2723;DHT22;1369;53.216;10.396;2023-09-18T03:23:13;15.60;99.90
2723;DHT22;1369;53.216;10.396;2023-09-18T03:25:39;15.60;99.90
2723;DHT22;1369;53.216;10.396;2023-09-18T03:28:05;15.50;99.90
2723;DHT22;1369;53.216;10.396;2023-09-18T03:30:31;15.50;99.90
2723;DHT22;1369;53.216;10.396;2023-09-18T03:32:57;15.50;99.90
2723;DHT22;1369;53.216;10.396;2023-09-18T03:35:22;15.50;99.90
2723;DHT22;1369;53.216;10.396;2023-09-18T03:37:50;15.50;99.90
2723;DHT22;1369;53.216;10.396;2023-09-18T03:40:17;15.50;99.90
2723;DHT22;1369;53.216;10.396;2023-09-18T03:42:43;15.50;99.90
2723;DHT22;1369;53.216;10.396;2023-09-18T03:45:09;15.50;99.90
2723;DHT22;1369;53.216;10.396;2023-09-18T03:47:36;15.40;99.90
2723;DHT22;1369;53.216;10.396;2023-09-18T03:50:06;15.50;99.90
2723;DHT22;1369;53.216;10.396;2023-09-18T03:52:35;15.40;99.90
2723;DHT22;1369;53.216;10.396;2023-09-18T03:55:00;15.40;99.90
2723;DHT22;1369;53.216;10.396;2023-09-18T03:57:26;15.40;99.90
2723;DHT22;1369;53.216;10.396;2023-09-18T03:59:52;15.40;99.90
2723;DHT22;1369;53.216;10.396;2023-09-18T04:02:17;15.40;99.90
2723;DHT22;1369;53.216;10.396;2023-09-18T04:04:43;15.40;99.90
2723;DHT22;1369;53.216;10.396;2023-09-18T04:07:09;15.40;99.90
2723;DHT22;1369;53.216;10.396;2023-09-18T04:09:35;15.40;99.90
2723;DHT22;1369;53.216;10.396;2023-09-18T04:12:02;15.30;99.90
2723;DHT22;1369;53.216;10.396;2023-09-18T04:14:27;15.30;99.90
2723;DHT22;1369;53.216;10.396;2023-09-18T04:16:53;15.30;99.90
2723;DHT22;1369;53.216;10.396;2023-09-18T04:19:19;15.30;99.90
2723;DHT22;1369;53.216;10.396;2023-09-18T04:21:45;15.30;99.90
2723;DHT22;1369;53.216;10.396;2023-09-18T04:24:10;15.40;99.90
2723;DHT22;1369;53.216;10.396;2023-09-18T04:26:36;15.30;99.90
2723;DHT22;1369;53.216;10.396;2023-09-18T04:29:03;15.30;99.90
2723;DHT22;1369;53.216;10.396;2023-09-18T04:31:29;15.30;99.90
2723;DHT22;1369;53.216;10.396;2023-09-18T04:33:55;15.30;99.90
2723;DHT22;1369;53.216;10.396;2023-09-18T04:36:21;15.30;99.90
2723;DHT22;1369;53.216;10.396;2023-09-18T04:38:46;15.30;99.90
2723;DHT22;1369;53.216;10.396;2023-09-18T04:41:14;15.30;99.90
2723;DHT22;1369;53.216;10.396;2023-09-18T04:43:40;15.30;99.90
2723;DHT22;1369;53.216;10.396;2023-09-18T04:46:08;15.30;99.90
2723;DHT22;1369;53.216;10.396;2023-09-18T04:48:33;15.40;99.90
2723;DHT22;1369;53.216;10.396;2023-09-18T04:50:59;15.40;99.90
2723;DHT22;1369;53.216;10.396;2023-09-18T04:53:29;15.40;99.90
2723;DHT22;1369;53.216;10.396;2023-09-18T04:55:54;15.40;99.90
2723;DHT22;1369;53.216;10.396;2023-09-18T04:58:21;15.40;99.90
2723;DHT22;1369;53.216;10.396;2023-09-18T05:00:53;15.40;99.90
2723;DHT22;1369;53.216;10.396;2023-09-18T05:03:18;15.40;99.90
2723;DHT22;1369;53.216;10.396;2023-09-18T05:05:44;15.40;99.90
2723;DHT22;1369;53.216;10.396;2023-09-18T05:08:09;15.40;99.90
2723;DHT22;1369;53.216;10.396;2023-09-18T05:10:36;15.40;99.90
2723;DHT22;1369;53.216;10.396;2023-09-18T05:13:02;15.40;99.90
2723;DHT22;1369;53.216;10.396;2023-09-18T05:15:29;15.50;99.90
2723;DHT22;1369;53.216;10.396;2023-09-18T05:17:55;15.50;99.90
2723;DHT22;1369;53.216;10.396;2023-09-18T05:20:24;15.50;99.90
2723;DHT22;1369;53.216;10.396;2023-09-18T05:22:51;15.60;99.90
2723;DHT22;1369;53.216;10.396;2023-09-18T05:25:24;15.60;99.90
2723;DHT22;1369;53.216;10.396;2023-09-18T05:27:51;15.70;99.90
2723;DHT22;1369;53.216;10.396;2023-09-18T05:30:34;15.80;99.90
2723;DHT22;1369;53.216;10.396;2023-09-18T05:33:04;15.80;99.90
2723;DHT22;1369;53.216;10.396;2023-09-18T05:35:31;15.90;99.90
2723;DHT22;1369;53.216;10.396;2023-09-18T05:37:57;15.90;99.90
2723;DHT22;1369;53.216;10.396;2023-09-18T05:40:24;16.00;99.90
2723;DHT22;1369;53.216;10.396;2023-09-18T05:42:52;16.00;99.90
2723;DHT22;1369;53.216;10.396;2023-09-18T05:45:18;16.00;99.90
2723;DHT22;1369;53.216;10.396;2023-09-18T05:47:44;16.10;99.90
2723;DHT22;1369;53.216;10.396;2023-09-18T05:50:11;16.10;99.90
2723;DHT22;1369;53.216;10.396;2023-09-18T05:52:44;16.20;99.90
2723;DHT22;1369;53.216;10.396;2023-09-18T05:55:10;16.30;99.90
2723;DHT22;1369;53.216;10.396;2023-09-18T05:57:36;16.50;99.90
2723;DHT22;1369;53.216;10.396;2023-09-18T06:00:03;16.50;99.90
2723;DHT22;1369;53.216;10.396;2023-09-18T06:02:28;16.70;99.90
2723;DHT22;1369;53.216;10.396;2023-09-18T06:05:01;16.80;99.90
2723;DHT22;1369;53.216;10.396;2023-09-18T06:07:27;16.90;99.90
2723;DHT22;1369;53.216;10.396;2023-09-18T06:09:53;17.10;99.90
2723;DHT22;1369;53.216;10.396;2023-09-18T06:12:19;17.30;99.90
2723;DHT22;1369;53.216;10.396;2023-09-18T06:14:44;17.50;99.90
2723;DHT22;1369;53.216;10.396;2023-09-18T06:17:12;17.70;99.90
2723;DHT22;1369;53.216;10.396;2023-09-18T06:19:37;17.80;99.90
2723;DHT22;1369;53.216;10.396;2023-09-18T06:22:04;17.90;99.90
2723;DHT22;1369;53.216;10.396;2023-09-18T06:24:30;18.00;99.90
2723;DHT22;1369;53.216;10.396;2023-09-18T06:26:56;18.00;99.90
2723;DHT22;1369;53.216;10.396;2023-09-18T06:29:21;18.10;99.90
2723;DHT22;1369;53.216;10.396;2023-09-18T06:31:47;18.30;99.90
2723;DHT22;1369;53.216;10.396;2023-09-18T06:34:13;18.30;99.90
2723;DHT22;1369;53.216;10.396;2023-09-18T06:36:38;18.30;99.90
2723;DHT22;1369;53.216;10.396;2023-09-18T06:39:04;18.40;99.90
2723;DHT22;1369;53.216;10.396;2023-09-18T06:41:30;18.40;99.90
2723;DHT22;1369;53.216;10.396;2023-09-18T06:43:55;18.50;99.90
2723;DHT22;1369;53.216;10.396;2023-09-18T06:46:22;18.50;99.90
2723;DHT22;1369;53.216;10.396;2023-09-18T06:48:48;18.50;99.90
2723;DHT22;1369;53.216;10.396;2023-09-18T06:51:16;18.50;99.90
2723;DHT22;1369;53.216;10.396;2023-09-18T06:53:44;18.50;99.90
2723;DHT22;1369;53.216;10.396;2023-09-18T06:56:10;18.50;99.90
2723;DHT22;1369;53.216;10.396;2023-09-18T06:58:36;18.50;99.90
2723;DHT22;1369;53.216;10.396;2023-09-18T07:01:02;18.50;99.90
2723;DHT22;1369;53.216;10.396;2023-09-18T07:03:28;18.50;99.90
2723;DHT22;1369;53.216;10.396;2023-09-18T07:05:54;18.60;99.90
2723;DHT22;1369;53.216;10.396;2023-09-18T07:08:19;18.70;99.90
2723;DHT22;1369;53.216;10.396;2023-09-18T07:10:50;18.80;99.90
2723;DHT22;1369;53.216;10.396;2023-09-18T07:13:15;18.80;99.90
2723;DHT22;1369;53.216;10.396;2023-09-18T07:15:41;18.90;99.90
2723;DHT22;1369;53.216;10.396;2023-09-18T07:18:07;18.90;99.90
2723;DHT22;1369;53.216;10.396;2023-09-18T07:20:32;18.90;99.90
2723;DHT22;1369;53.216;10.396;2023-09-18T07:22:59;18.80;99.90
2723;DHT22;1369;53.216;10.396;2023-09-18T07:25:24;18.90;99.90
2723;DHT22;1369;53.216;10.396;2023-09-18T07:27:50;19.10;99.90
2723;DHT22;1369;53.216;10.396;2023-09-18T07:30:15;19.30;99.90
2723;DHT22;1369;53.216;10.396;2023-09-18T07:32:42;19.50;99.90
2723;DHT22;1369;53.216;10.396;2023-09-18T07:35:09;19.70;99.90
2723;DHT22;1369;53.216;10.396;2023-09-18T07:37:35;19.80;99.90
2723;DHT22;1369;53.216;10.396;2023-09-18T07:40:03;19.90;99.90
2723;DHT22;1369;53.216;10.396;2023-09-18T07:42:29;20.00;99.90
2723;DHT22;1369;53.216;10.396;2023-09-18T07:44:54;20.20;99.90
2723;DHT22;1369;53.216;10.396;2023-09-18T07:47:20;20.30;99.90
2723;DHT22;1369;53.216;10.396;2023-09-18T07:49:46;20.40;99.90
2723;DHT22;1369;53.216;10.396;2023-09-18T07:52:12;20.50;99.90
2723;DHT22;1369;53.216;10.396;2023-09-18T07:54:38;20.70;99.90
2723;DHT22;1369;53.216;10.396;2023-09-18T07:57:04;20.70;99.90
2723;DHT22;1369;53.216;10.396;2023-09-18T07:59:29;20.80;99.90
2723;DHT22;1369;53.216;10.396;2023-09-18T08:01:55;20.80;99.90
2723;DHT22;1369;53.216;10.396;2023-09-18T08:04:21;20.80;99.90
2723;DHT22;1369;53.216;10.396;2023-09-18T08:06:47;20.70;99.90
2723;DHT22;1369;53.216;10.396;2023-09-18T08:09:13;20.70;99.90
2723;DHT22;1369;53.216;10.396;2023-09-18T08:11:42;20.60;99.90
2723;DHT22;1369;53.216;10.396;2023-09-18T08:14:09;20.50;99.90
2723;DHT22;1369;53.216;10.396;2023-09-18T08:16:37;20.50;99.90
2723;DHT22;1369;53.216;10.396;2023-09-18T08:19:03;20.40;99.90
2723;DHT22;1369;53.216;10.396;2023-09-18T08:21:29;20.40;99.90
2723;DHT22;1369;53.216;10.396;2023-09-18T08:23:55;20.40;99.90
2723;DHT22;1369;53.216;10.396;2023-09-18T08:26:24;20.40;99.90
2723;DHT22;1369;53.216;10.396;2023-09-18T08:28:51;20.40;99.90
2723;DHT22;1369;53.216;10.396;2023-09-18T08:31:16;20.40;99.90
2723;DHT22;1369;53.216;10.396;2023-09-18T08:33:43;20.40;99.90
2723;DHT22;1369;53.216;10.396;2023-09-18T08:36:09;20.40;99.90
2723;DHT22;1369;53.216;10.396;2023-09-18T08:38:35;20.50;99.90
2723;DHT22;1369;53.216;10.396;2023-09-18T08:41:00;20.60;99.90
2723;DHT22;1369;53.216;10.396;2023-09-18T08:43:26;20.70;99.90
2723;DHT22;1369;53.216;10.396;2023-09-18T08:45:56;20.80;99.90
2723;DHT22;1369;53.216;10.396;2023-09-18T08:48:28;20.90;99.90
2723;DHT22;1369;53.216;10.396;2023-09-18T08:51:04;20.90;99.90
2723;DHT22;1369;53.216;10.396;2023-09-18T08:53:33;20.80;99.90
2723;DHT22;1369;53.216;10.396;2023-09-18T08:56:00;20.80;99.90
2723;DHT22;1369;53.216;10.396;2023-09-18T08:58:32;20.70;99.90
2723;DHT22;1369;53.216;10.396;2023-09-18T09:01:01;20.60;99.90
2723;DHT22;1369;53.216;10.396;2023-09-18T09:03:29;20.50;99.90
2723;DHT22;1369;53.216;10.396;2023-09-18T09:05:56;20.50;99.90
2723;DHT22;1369;53.216;10.396;2023-09-18T09:08:22;20.40;99.90
2723;DHT22;1369;53.216;10.396;2023-09-18T09:10:48;20.40;99.90
2723;DHT22;1369;53.216;10.396;2023-09-18T09:13:14;20.50;99.90
2723;DHT22;1369;53.216;10.396;2023-09-18T09:15:47;20.50;99.90
2723;DHT22;1369;53.216;10.396;2023-09-18T09:18:14;20.50;99.90
2723;DHT22;1369;53.216;10.396;2023-09-18T09:21:04;20.80;99.90
2723;DHT22;1369;53.216;10.396;2023-09-18T09:23:54;21.20;99.90
2723;DHT22;1369;53.216;10.396;2023-09-18T09:26:23;21.60;99.90
2723;DHT22;1369;53.216;10.396;2023-09-18T09:28:49;22.00;99.90
2723;DHT22;1369;53.216;10.396;2023-09-18T09:31:26;22.10;99.90
2723;DHT22;1369;53.216;10.396;2023-09-18T09:33:54;22.10;99.90
2723;DHT22;1369;53.216;10.396;2023-09-18T09:36:23;22.20;99.90
2723;DHT22;1369;53.216;10.396;2023-09-18T09:38:54;22.10;99.90
2723;DHT22;1369;53.216;10.396;2023-09-18T09:41:21;22.20;99.90
2723;DHT22;1369;53.216;10.396;2023-09-18T09:43:47;22.40;99.90
2723;DHT22;1369;53.216;10.396;2023-09-18T09:46:17;22.50;99.90
2723;DHT22;1369;53.216;10.396;2023-09-18T09:49:05;22.50;99.90
2723;DHT22;1369;53.216;10.396;2023-09-18T09:51:32;22.70;99.90
2723;DHT22;1369;53.216;10.396;2023-09-18T09:53:58;22.80;99.90
2723;DHT22;1369;53.216;10.396;2023-09-18T09:59:11;23.00;99.90
2723;DHT22;1369;53.216;10.396;2023-09-18T10:01:38;23.10;99.90
2723;DHT22;1369;53.216;10.396;2023-09-18T10:04:05;23.10;99.90
2723;DHT22;1369;53.216;10.396;2023-09-18T10:06:34;23.10;99.90
2723;DHT22;1369;53.216;10.396;2023-09-18T10:09:03;23.00;99.90
2723;DHT22;1369;53.216;10.396;2023-09-18T10:11:34;23.00;99.90
2723;DHT22;1369;53.216;10.396;2023-09-18T10:14:09;22.90;99.90
2723;DHT22;1369;53.216;10.396;2023-09-18T10:16:37;22.90;99.90
2723;DHT22;1369;53.216;10.396;2023-09-18T10:24:47;22.90;99.90
2723;DHT22;1369;53.216;10.396;2023-09-18T10:27:16;23.00;99.90
2723;DHT22;1369;53.216;10.396;2023-09-18T10:29:43;23.00;99.90
2723;DHT22;1369;53.216;10.396;2023-09-18T10:32:11;23.00;99.90
2723;DHT22;1369;53.216;10.396;2023-09-18T10:34:38;23.00;99.90
2723;DHT22;1369;53.216;10.396;2023-09-18T10:37:04;23.00;99.90
2723;DHT22;1369;53.216;10.396;2023-09-18T10:39:38;22.90;99.90
2723;DHT22;1369;53.216;10.396;2023-09-18T10:42:07;22.80;99.90
2723;DHT22;1369;53.216;10.396;2023-09-18T10:44:34;22.80;99.90
2723;DHT22;1369;53.216;10.396;2023-09-18T10:47:01;22.80;99.90
2723;DHT22;1369;53.216;10.396;2023-09-18T10:49:28;22.90;99.90
2723;DHT22;1369;53.216;10.396;2023-09-18T10:51:55;23.00;99.90
2723;DHT22;1369;53.216;10.396;2023-09-18T10:54:23;23.20;99.90
2723;DHT22;1369;53.216;10.396;2023-09-18T10:56:49;23.20;99.90
2723;DHT22;1369;53.216;10.396;2023-09-18T10:59:15;23.30;99.90
2723;DHT22;1369;53.216;10.396;2023-09-18T11:01:42;23.40;99.90
2723;DHT22;1369;53.216;10.396;2023-09-18T11:04:08;23.40;99.90
2723;DHT22;1369;53.216;10.396;2023-09-18T11:09:24;23.70;99.90
2723;DHT22;1369;53.216;10.396;2023-09-18T11:17:41;24.00;99.90
2723;DHT22;1369;53.216;10.396;2023-09-18T11:22:58;24.20;99.90
2723;DHT22;1369;53.216;10.396;2023-09-18T11:27:57;23.90;99.90
2723;DHT22;1369;53.216;10.396;2023-09-18T11:30:22;23.80;99.90
2723;DHT22;1369;53.216;10.396;2023-09-18T11:32:52;23.80;99.90
2723;DHT22;1369;53.216;10.396;2023-09-18T11:35:18;23.90;99.90
2723;DHT22;1369;53.216;10.396;2023-09-18T11:37:45;24.00;99.90
2723;DHT22;1369;53.216;10.396;2023-09-18T11:40:30;24.10;99.90
2723;DHT22;1369;53.216;10.396;2023-09-18T11:45:49;24.40;99.90
2723;DHT22;1369;53.216;10.396;2023-09-18T11:48:17;24.40;99.90
2723;DHT22;1369;53.216;10.396;2023-09-18T11:50:43;24.40;99.90
2723;DHT22;1369;53.216;10.396;2023-09-18T11:53:11;24.40;99.90
2723;DHT22;1369;53.216;10.396;2023-09-18T11:55:39;24.40;99.90
2723;DHT22;1369;53.216;10.396;2023-09-18T11:58:06;24.30;99.90
2723;DHT22;1369;53.216;10.396;2023-09-18T12:00:32;24.10;99.90
2723;DHT22;1369;53.216;10.396;2023-09-18T12:02:57;24.10;99.90
2723;DHT22;1369;53.216;10.396;2023-09-18T12:05:24;24.00;99.90
2723;DHT22;1369;53.216;10.396;2023-09-18T12:07:52;23.90;99.90
2723;DHT22;1369;53.216;10.396;2023-09-18T12:10:20;24.00;99.90
2723;DHT22;1369;53.216;10.396;2023-09-18T12:12:49;24.10;99.90
2723;DHT22;1369;53.216;10.396;2023-09-18T12:15:18;24.20;99.90
2723;DHT22;1369;53.216;10.396;2023-09-18T12:17:44;24.20;99.90
2723;DHT22;1369;53.216;10.396;2023-09-18T12:20:18;24.30;99.90
2723;DHT22;1369;53.216;10.396;2023-09-18T12:22:49;24.30;99.90
2723;DHT22;1369;53.216;10.396;2023-09-18T12:25:16;24.40;99.90
2723;DHT22;1369;53.216;10.396;2023-09-18T12:27:46;24.60;99.90
2723;DHT22;1369;53.216;10.396;2023-09-18T12:30:16;24.80;99.90
2723;DHT22;1369;53.216;10.396;2023-09-18T12:32:46;25.10;99.90
2723;DHT22;1369;53.216;10.396;2023-09-18T12:35:14;25.30;99.90
2723;DHT22;1369;53.216;10.396;2023-09-18T12:37:41;25.60;99.90
2723;DHT22;1369;53.216;10.396;2023-09-18T12:40:23;25.70;99.90
2723;DHT22;1369;53.216;10.396;2023-09-18T12:42:50;25.70;99.90
2723;DHT22;1369;53.216;10.396;2023-09-18T12:45:16;25.60;99.90
2723;DHT22;1369;53.216;10.396;2023-09-18T12:47:43;25.30;99.90
2723;DHT22;1369;53.216;10.396;2023-09-18T12:50:13;25.00;99.90
2723;DHT22;1369;53.216;10.396;2023-09-18T12:52:48;24.80;99.90
2723;DHT22;1369;53.216;10.396;2023-09-18T12:55:25;24.70;99.90
2723;DHT22;1369;53.216;10.396;2023-09-18T12:57:52;24.60;99.90
2723;DHT22;1369;53.216;10.396;2023-09-18T13:00:20;24.60;99.90
2723;DHT22;1369;53.216;10.396;2023-09-18T13:02:49;24.70;99.90
2723;DHT22;1369;53.216;10.396;2023-09-18T13:05:21;24.70;99.90
2723;DHT22;1369;53.216;10.396;2023-09-18T13:07:50;24.80;99.90
2723;DHT22;1369;53.216;10.396;2023-09-18T13:10:16;24.90;99.90
2723;DHT22;1369;53.216;10.396;2023-09-18T13:12:52;25.00;99.90
2723;DHT22;1369;53.216;10.396;2023-09-18T13:15:31;25.30;99.90
2723;DHT22;1369;53.216;10.396;2023-09-18T13:18:09;25.30;99.90
2723;DHT22;1369;53.216;10.396;2023-09-18T13:20:35;25.40;99.90
2723;DHT22;1369;53.216;10.396;2023-09-18T13:23:01;25.40;99.90
2723;DHT22;1369;53.216;10.396;2023-09-18T13:25:38;25.40;99.90
2723;DHT22;1369;53.216;10.396;2023-09-18T13:28:08;25.20;99.90
2723;DHT22;1369;53.216;10.396;2023-09-18T13:30:39;25.00;99.90
2723;DHT22;1369;53.216;10.396;2023-09-18T13:33:09;24.60;99.90
2723;DHT22;1369;53.216;10.396;2023-09-18T13:35:37;24.50;99.90
2723;DHT22;1369;53.216;10.396;2023-09-18T13:38:04;24.30;99.90
2723;DHT22;1369;53.216;10.396;2023-09-18T13:40:31;24.20;99.90
2723;DHT22;1369;53.216;10.396;2023-09-18T13:42:59;24.20;99.90
2723;DHT22;1369;53.216;10.396;2023-09-18T13:45:24;24.10;99.90
2723;DHT22;1369;53.216;10.396;2023-09-18T13:47:51;24.10;99.90
2723;DHT22;1369;53.216;10.396;2023-09-18T13:50:17;24.20;99.90
2723;DHT22;1369;53.216;10.396;2023-09-18T13:52:43;24.00;99.90
2723;DHT22;1369;53.216;10.396;2023-09-18T13:55:09;24.00;99.90
2723;DHT22;1369;53.216;10.396;2023-09-18T13:57:37;23.90;99.90
2723;DHT22;1369;53.216;10.396;2023-09-18T14:00:04;23.90;99.90
2723;DHT22;1369;53.216;10.396;2023-09-18T14:02:34;23.90;99.90
2723;DHT22;1369;53.216;10.396;2023-09-18T14:05:01;23.90;99.90
2723;DHT22;1369;53.216;10.396;2023-09-18T14:07:30;23.80;99.90
2723;DHT22;1369;53.216;10.396;2023-09-18T14:09:56;23.80;99.90
2723;DHT22;1369;53.216;10.396;2023-09-18T14:12:22;23.70;99.90
2723;DHT22;1369;53.216;10.396;2023-09-18T14:14:48;23.70;99.90
2723;DHT22;1369;53.216;10.396;2023-09-18T14:17:13;23.60;99.90
2723;DHT22;1369;53.216;10.396;2023-09-18T14:19:42;23.60;99.90
2723;DHT22;1369;53.216;10.396;2023-09-18T14:22:08;23.50;99.90
2723;DHT22;1369;53.216;10.396;2023-09-18T14:24:33;23.50;99.90
2723;DHT22;1369;53.216;10.396;2023-09-18T14:27:06;23.40;99.90
2723;DHT22;1369;53.216;10.396;2023-09-18T14:29:33;23.50;99.90
2723;DHT22;1369;53.216;10.396;2023-09-18T14:32:00;23.40;99.90
2723;DHT22;1369;53.216;10.396;2023-09-18T14:34:26;23.50;99.90
2723;DHT22;1369;53.216;10.396;2023-09-18T14:36:52;23.40;99.90
2723;DHT22;1369;53.216;10.396;2023-09-18T14:39:18;23.30;99.90
2723;DHT22;1369;53.216;10.396;2023-09-18T14:41:43;23.40;99.90
2723;DHT22;1369;53.216;10.396;2023-09-18T14:44:10;23.30;99.90
2723;DHT22;1369;53.216;10.396;2023-09-18T14:46:36;23.30;99.90
2723;DHT22;1369;53.216;10.396;2023-09-18T14:49:05;23.40;99.90
2723;DHT22;1369;53.216;10.396;2023-09-18T14:51:33;23.40;99.90
2723;DHT22;1369;53.216;10.396;2023-09-18T14:53:59;23.40;99.90
2723;DHT22;1369;53.216;10.396;2023-09-18T14:56:26;23.40;99.90
2723;DHT22;1369;53.216;10.396;2023-09-18T14:58:51;23.30;99.90
2723;DHT22;1369;53.216;10.396;2023-09-18T15:01:21;23.30;99.90
2723;DHT22;1369;53.216;10.396;2023-09-18T15:03:47;23.30;99.90
2723;DHT22;1369;53.216;10.396;2023-09-18T15:06:14;23.30;99.90
2723;DHT22;1369;53.216;10.396;2023-09-18T15:08:40;23.30;99.90
2723;DHT22;1369;53.216;10.396;2023-09-18T15:11:05;23.30;99.90
2723;DHT22;1369;53.216;10.396;2023-09-18T15:13:32;23.30;99.90
2723;DHT22;1369;53.216;10.396;2023-09-18T15:15:58;23.20;99.90
2723;DHT22;1369;53.216;10.396;2023-09-18T15:18:25;23.20;99.90
2723;DHT22;1369;53.216;10.396;2023-09-18T15:20:50;23.10;99.90
2723;DHT22;1369;53.216;10.396;2023-09-18T15:23:23;23.00;99.90
2723;DHT22;1369;53.216;10.396;2023-09-18T15:25:50;23.00;99.90
2723;DHT22;1369;53.216;10.396;2023-09-18T15:28:16;23.00;99.90
2723;DHT22;1369;53.216;10.396;2023-09-18T15:30:45;22.90;99.90
2723;DHT22;1369;53.216;10.396;2023-09-18T15:33:10;22.80;99.90
2723;DHT22;1369;53.216;10.396;2023-09-18T15:35:37;22.80;99.90
2723;DHT22;1369;53.216;10.396;2023-09-18T15:38:03;22.80;99.90
2723;DHT22;1369;53.216;10.396;2023-09-18T15:40:29;22.80;99.90
2723;DHT22;1369;53.216;10.396;2023-09-18T15:42:54;22.70;99.90
2723;DHT22;1369;53.216;10.396;2023-09-18T15:45:20;22.70;99.90
2723;DHT22;1369;53.216;10.396;2023-09-18T15:47:46;22.70;99.90
2723;DHT22;1369;53.216;10.396;2023-09-18T15:50:13;22.60;99.90
2723;DHT22;1369;53.216;10.396;2023-09-18T15:52:39;22.60;99.90
2723;DHT22;1369;53.216;10.396;2023-09-18T15:55:06;22.60;99.90
2723;DHT22;1369;53.216;10.396;2023-09-18T15:57:36;22.60;99.90
2723;DHT22;1369;53.216;10.396;2023-09-18T16:00:06;22.60;99.90
2723;DHT22;1369;53.216;10.396;2023-09-18T16:02:32;22.60;99.90
2723;DHT22;1369;53.216;10.396;2023-09-18T16:04:58;22.50;99.90
2723;DHT22;1369;53.216;10.396;2023-09-18T16:07:26;22.50;99.90
2723;DHT22;1369;53.216;10.396;2023-09-18T16:09:52;22.40;99.90